createdAt,value
2018-07-24T00:02:04.040Z,16.27
2018-07-24T00:04:34.247Z,16.20
2018-07-24T00:07:04.322Z,15.40
2018-07-24T00:09:34.893Z,15.50
2018-07-24T00:12:05.233Z,15.97
2018-07-24T00:14:35.584Z,15.37
2018-07-24T00:17:05.721Z,14.93
2018-07-24T00:19:35.936Z,15.60
2018-07-24T00:22:06.120Z,16.07
2018-07-24T00:24:36.385Z,15.80
2018-07-24T00:27:06.469Z,15.23
2018-07-24T00:29:36.625Z,14.97
2018-07-24T00:32:06.807Z,15.60
2018-07-24T00:34:36.568Z,15.33
2018-07-24T00:37:06.993Z,15.57
2018-07-24T00:39:37.090Z,15.90
2018-07-24T00:42:07.442Z,16.37
2018-07-24T00:44:37.617Z,16.57
2018-07-24T00:47:07.812Z,16.63
2018-07-24T00:49:37.926Z,15.23
2018-07-24T00:52:08.624Z,16.83
2018-07-24T00:54:38.757Z,16.07
2018-07-24T00:57:10.184Z,15.50
2018-07-24T00:59:40.353Z,18.93
2018-07-24T01:02:10.596Z,18.33
2018-07-24T01:04:45.820Z,21.07
2018-07-24T01:07:15.888Z,19.23
2018-07-24T01:09:46.216Z,16.03
2018-07-24T01:12:16.393Z,16.60
2018-07-24T01:14:46.566Z,16.50
2018-07-24T01:17:16.725Z,16.53
2018-07-24T01:19:46.914Z,16.57
2018-07-24T01:22:16.998Z,18.43
2018-07-24T01:24:47.160Z,18.33
2018-07-24T01:27:17.257Z,18.20
2018-07-24T01:29:47.369Z,17.43
2018-07-24T01:32:17.441Z,17.50
2018-07-24T01:34:47.566Z,17.87
2018-07-24T01:37:17.648Z,18.40
2018-07-24T01:39:47.874Z,18.13
2018-07-24T01:42:17.986Z,17.40
2018-07-24T01:44:48.138Z,18.40
2018-07-24T01:47:18.310Z,19.07
2018-07-24T01:49:48.484Z,18.67
2018-07-24T01:52:18.598Z,17.47
2018-07-24T01:54:49.097Z,18.80
2018-07-24T01:57:19.244Z,19.53
2018-07-24T01:59:49.443Z,20.47
2018-07-24T02:02:24.168Z,21.97
2018-07-24T02:04:54.343Z,19.60
2018-07-24T02:07:24.690Z,21.57
2018-07-24T02:09:54.827Z,21.47
2018-07-24T02:12:25.029Z,21.07
2018-07-24T02:14:55.230Z,20.60
2018-07-24T02:17:25.429Z,21.03
2018-07-24T02:19:55.181Z,19.90
2018-07-24T02:22:25.199Z,19.47
2018-07-24T02:24:55.329Z,19.40
2018-07-24T02:27:25.400Z,19.23
2018-07-24T02:29:54.910Z,20.43
2018-07-24T02:32:24.993Z,19.77
2018-07-24T02:34:55.105Z,23.00
2018-07-24T02:37:25.229Z,18.93
2018-07-24T02:39:55.343Z,19.27
2018-07-24T02:42:25.528Z,20.97
2018-07-24T02:44:55.125Z,21.10
2018-07-24T02:47:25.206Z,19.70
2018-07-24T02:49:55.415Z,18.97
2018-07-24T02:52:25.162Z,18.13
2018-07-24T02:54:55.148Z,21.13
2018-07-24T02:57:25.253Z,19.03
2018-07-24T02:59:57.205Z,18.80
2018-07-24T03:02:27.373Z,20.90
2018-07-24T03:04:57.461Z,18.50
2018-07-24T03:07:27.569Z,19.77
2018-07-24T03:09:57.697Z,21.57
2018-07-24T03:12:27.867Z,20.50
2018-07-24T03:14:58.105Z,20.67
2018-07-24T03:17:28.490Z,19.37
2018-07-24T03:19:58.670Z,18.33
2018-07-24T03:22:28.765Z,21.57
2018-07-24T03:24:59.050Z,23.50
2018-07-24T03:27:29.185Z,20.17
2018-07-24T03:29:59.327Z,19.23
2018-07-24T03:32:29.509Z,18.53
2018-07-24T03:34:59.589Z,19.10
2018-07-24T03:37:29.753Z,19.10
2018-07-24T03:39:59.862Z,19.03
2018-07-24T03:42:29.391Z,18.50
2018-07-24T03:44:59.738Z,18.47
2018-07-24T03:47:29.928Z,21.70
2018-07-24T03:50:00.122Z,18.03
2018-07-24T03:52:30.282Z,17.73
2018-07-24T03:55:00.399Z,19.40
2018-07-24T03:57:32.218Z,19.00
2018-07-24T04:00:02.402Z,20.27
2018-07-24T04:02:32.554Z,20.43
2018-07-24T04:05:03.095Z,23.87
2018-07-24T04:07:32.823Z,19.80
2018-07-24T04:10:02.802Z,18.07
2018-07-24T04:12:32.893Z,20.27
2018-07-24T04:15:02.977Z,18.23
2018-07-24T04:17:33.102Z,19.63
2018-07-24T04:20:03.286Z,22.43
2018-07-24T04:22:33.440Z,20.73
2018-07-24T04:25:03.815Z,20.23
2018-07-24T04:27:34.098Z,19.43
2018-07-24T04:30:04.373Z,18.57
2018-07-24T04:32:34.837Z,21.00
2018-07-24T04:35:04.973Z,17.33
2018-07-24T04:37:35.294Z,17.40
2018-07-24T04:40:06.176Z,18.67
2018-07-24T04:42:36.273Z,19.07
2018-07-24T04:45:07.306Z,21.60
2018-07-24T04:47:37.502Z,16.90
2018-07-24T04:50:07.650Z,18.47
2018-07-24T04:52:37.747Z,18.43
2018-07-24T04:55:07.920Z,17.67
2018-07-24T04:57:38.109Z,17.40
2018-07-24T05:00:16.106Z,18.13
2018-07-24T05:02:46.951Z,20.63
2018-07-24T05:05:17.044Z,20.47
2018-07-24T05:07:47.217Z,17.77
2018-07-24T05:10:17.642Z,17.63
2018-07-24T05:12:47.839Z,18.37
2018-07-24T05:15:17.991Z,19.00
2018-07-24T05:17:48.118Z,19.67
2018-07-24T05:20:18.322Z,19.13
2018-07-24T05:22:48.501Z,18.03
2018-07-24T05:25:18.661Z,19.90
2018-07-24T05:27:48.973Z,16.70
2018-07-24T05:30:19.401Z,17.50
2018-07-24T05:32:49.691Z,17.77
2018-07-24T05:35:20.220Z,16.77
2018-07-24T05:37:50.714Z,15.53
2018-07-24T05:40:20.810Z,26.00
2018-07-24T05:42:51.021Z,16.53
2018-07-24T05:45:21.181Z,18.20
2018-07-24T05:47:51.489Z,23.07
2018-07-24T05:50:21.598Z,17.43
2018-07-24T05:52:51.134Z,17.40
2018-07-24T05:55:21.129Z,20.07
2018-07-24T05:57:53.234Z,18.97
2018-07-24T06:00:24.746Z,16.50
2018-07-24T06:02:54.869Z,16.77
2018-07-24T06:05:24.982Z,18.80
2018-07-24T06:07:55.481Z,21.47
2018-07-24T06:10:25.726Z,17.00
2018-07-24T06:12:56.781Z,18.43
2018-07-24T06:15:26.918Z,20.03
2018-07-24T06:17:57.108Z,16.57
2018-07-24T06:20:26.698Z,18.60
2018-07-24T06:22:56.785Z,19.87
2018-07-24T06:25:27.077Z,20.30
2018-07-24T06:27:57.490Z,20.27
2018-07-24T06:30:27.946Z,22.17
2018-07-24T06:32:58.151Z,19.10
2018-07-24T06:35:28.330Z,23.47
2018-07-24T06:37:58.513Z,21.27
2018-07-24T06:40:28.626Z,20.30
2018-07-24T06:42:58.978Z,19.70
2018-07-24T06:45:29.162Z,22.57
2018-07-24T06:47:59.478Z,18.47
2018-07-24T06:50:29.560Z,19.10
2018-07-24T06:52:59.877Z,18.43
2018-07-24T06:55:29.377Z,18.07
2018-07-24T07:00:44.308Z,26.47
2018-07-24T07:03:14.527Z,19.33
2018-07-24T07:05:44.630Z,18.63
2018-07-24T07:08:14.793Z,17.23
2018-07-24T07:10:44.898Z,18.83
2018-07-24T07:13:15.121Z,21.73
2018-07-24T07:15:45.265Z,20.37
2018-07-24T07:18:15.573Z,19.70
2018-07-24T07:20:45.750Z,21.20
2018-07-24T07:23:15.968Z,19.33
2018-07-24T07:25:46.203Z,16.73
2018-07-24T07:28:16.802Z,19.00
2018-07-24T07:30:46.960Z,18.17
2018-07-24T07:33:17.458Z,15.93
2018-07-24T07:35:47.616Z,17.33
2018-07-24T07:38:17.805Z,17.37
2018-07-24T07:40:47.985Z,15.60
2018-07-24T07:43:18.207Z,18.00
2018-07-24T07:45:48.353Z,19.47
2018-07-24T07:48:18.638Z,16.53
2018-07-24T07:50:57.877Z,15.63
2018-07-24T07:53:36.534Z,17.63
2018-07-24T07:56:07.289Z,15.40
2018-07-24T07:58:39.269Z,16.03
2018-07-24T08:01:28.680Z,13.67
2018-07-24T08:04:05.976Z,13.73
2018-07-24T08:06:46.204Z,15.07
2018-07-24T08:09:19.659Z,14.07
2018-07-24T08:11:51.210Z,16.40
2018-07-24T08:14:56.252Z,20.03
2018-07-24T08:17:26.802Z,12.93
2018-07-24T08:19:57.081Z,13.27
2018-07-24T08:22:27.327Z,15.47
2018-07-24T08:24:57.516Z,14.97
2018-07-24T08:27:27.650Z,13.70
2018-07-24T08:29:57.770Z,15.17
2018-07-24T08:32:27.922Z,11.13
2018-07-24T08:34:59.038Z,12.57
2018-07-24T08:37:29.258Z,11.23
2018-07-24T08:40:05.663Z,10.97
2018-07-24T08:42:35.733Z,11.13
2018-07-24T08:45:06.365Z,10.77
2018-07-24T08:47:36.481Z,12.00
2018-07-24T08:50:07.008Z,10.20
2018-07-24T08:52:37.298Z,12.47
2018-07-24T08:55:07.513Z,10.73
2018-07-24T08:57:37.646Z,15.27
2018-07-24T09:00:07.834Z,13.63
2018-07-24T09:02:37.929Z,14.07
2018-07-24T09:05:08.085Z,12.10
2018-07-24T09:07:38.167Z,9.47
2018-07-24T09:10:08.811Z,8.73
2018-07-24T09:12:39.775Z,9.53
2018-07-24T09:15:11.306Z,13.27
2018-07-24T09:17:43.091Z,9.23
2018-07-24T09:20:13.218Z,11.53
2018-07-24T09:22:43.366Z,12.20
2018-07-24T09:25:13.497Z,10.03
2018-07-24T09:27:43.557Z,7.70
2018-07-24T09:30:13.669Z,9.33
2018-07-24T09:32:45.181Z,7.40
2018-07-24T09:35:15.293Z,8.17
2018-07-24T09:37:45.561Z,7.33
2018-07-24T09:40:15.705Z,6.03
2018-07-24T09:42:52.051Z,8.00
2018-07-24T09:45:22.178Z,6.83
2018-07-24T09:47:52.279Z,7.00
2018-07-24T09:50:21.792Z,10.43
2018-07-24T09:52:51.786Z,10.70
2018-07-24T09:55:21.969Z,7.30
2018-07-24T09:57:52.158Z,6.10
2018-07-24T10:00:27.408Z,5.40
2018-07-24T10:02:57.526Z,5.83
2018-07-24T10:05:27.716Z,5.83
2018-07-24T10:07:57.885Z,9.47
2018-07-24T10:10:28.180Z,17.80
2018-07-24T10:12:58.453Z,6.83
2018-07-24T10:15:29.045Z,8.00
2018-07-24T10:17:59.458Z,7.20
2018-07-24T10:20:29.707Z,4.87
2018-07-24T10:23:00.109Z,5.43
2018-07-24T10:25:30.518Z,6.93
2018-07-24T10:28:00.767Z,4.47
2018-07-24T10:30:30.977Z,6.47
2018-07-24T10:33:01.394Z,7.23
2018-07-24T10:35:31.739Z,9.10
2018-07-24T10:38:02.129Z,6.03
2018-07-24T10:40:32.262Z,5.23
2018-07-24T10:43:02.426Z,7.00
2018-07-24T10:45:34.365Z,4.60
2018-07-24T10:48:04.561Z,3.17
2018-07-24T10:53:12.463Z,3.83
2018-07-24T10:55:42.946Z,3.90
2018-07-24T10:58:13.038Z,4.20
2018-07-24T11:00:43.819Z,5.03
2018-07-24T11:03:13.933Z,4.63
2018-07-24T11:05:44.077Z,4.10
2018-07-24T11:08:14.230Z,5.10
2018-07-24T11:10:43.711Z,3.90
2018-07-24T11:13:13.746Z,3.83
2018-07-24T11:15:43.903Z,3.27
2018-07-24T11:18:14.065Z,3.77
2018-07-24T11:20:44.220Z,4.70
2018-07-24T11:23:14.582Z,4.20
2018-07-24T11:25:44.662Z,4.13
2018-07-24T11:28:14.801Z,2.97
2018-07-24T11:30:45.193Z,2.83
2018-07-24T11:33:15.318Z,4.43
2018-07-24T11:35:45.836Z,3.10
2018-07-24T11:38:15.913Z,5.90
2018-07-24T11:40:46.041Z,4.37
2018-07-24T11:43:16.617Z,4.83
2018-07-24T11:45:46.762Z,5.57
2018-07-24T11:48:16.929Z,5.17
2018-07-24T11:50:47.077Z,6.30
2018-07-24T11:53:20.017Z,5.00
2018-07-24T11:55:50.154Z,4.87
2018-07-24T11:58:20.240Z,4.80
2018-07-24T12:00:50.741Z,6.70
2018-07-24T12:03:20.920Z,4.03
2018-07-24T12:05:51.021Z,5.03
2018-07-24T12:08:21.136Z,3.57
2018-07-24T12:10:51.545Z,6.33
2018-07-24T12:13:21.661Z,3.67
2018-07-24T12:15:51.798Z,3.43
2018-07-24T12:18:21.892Z,4.93
2018-07-24T12:20:52.798Z,7.20
2018-07-24T12:23:22.507Z,3.63
2018-07-24T12:25:53.462Z,3.77
2018-07-24T12:28:25.274Z,3.20
2018-07-24T12:30:55.421Z,3.07
2018-07-24T12:33:25.490Z,2.97
2018-07-24T12:35:55.950Z,3.10
2018-07-24T12:38:26.035Z,3.33
2018-07-24T12:40:56.162Z,2.83
2018-07-24T12:43:26.473Z,3.10
2018-07-24T12:45:56.577Z,5.00
2018-07-24T12:48:26.772Z,2.50
2018-07-24T12:50:57.051Z,4.77
2018-07-24T12:53:27.137Z,3.37
2018-07-24T12:56:00.046Z,5.03
2018-07-24T12:58:30.217Z,4.97
2018-07-24T13:01:05.262Z,8.43
2018-07-24T13:03:35.380Z,4.07
2018-07-24T13:06:05.548Z,3.80
2018-07-24T13:08:35.772Z,4.67
2018-07-24T13:11:06.079Z,3.30
2018-07-24T13:13:36.176Z,4.90
2018-07-24T13:16:05.901Z,8.00
2018-07-24T13:18:35.929Z,6.13
2018-07-24T13:21:06.086Z,5.60
2018-07-24T13:23:37.213Z,6.93
2018-07-24T13:26:07.649Z,7.90
2018-07-24T13:28:37.793Z,4.97
2018-07-24T13:31:07.918Z,4.60
2018-07-24T13:33:38.146Z,3.60
2018-07-24T13:36:08.745Z,2.80
2018-07-24T13:38:38.838Z,3.57
2018-07-24T13:41:09.054Z,3.00
2018-07-24T13:43:39.210Z,4.65
2018-07-24T13:46:09.711Z,3.70
2018-07-24T13:48:39.721Z,3.30
2018-07-24T13:51:10.309Z,5.27
2018-07-24T13:53:40.426Z,3.67
2018-07-24T13:56:10.662Z,4.33
2018-07-24T13:58:40.946Z,4.28
2018-07-24T14:01:11.129Z,5.33
2018-07-24T14:03:46.610Z,4.72
2018-07-24T14:06:17.137Z,3.00
2018-07-24T14:08:47.202Z,3.27
2018-07-24T14:11:17.385Z,4.65
2018-07-24T14:13:47.522Z,5.03
2018-07-24T14:16:18.043Z,5.83
2018-07-24T14:18:48.116Z,3.00
2018-07-24T14:21:18.235Z,4.28
2018-07-24T14:23:48.347Z,2.90
2018-07-24T14:26:18.481Z,5.93
2018-07-24T14:28:48.594Z,8.10
2018-07-24T14:31:18.760Z,7.95
2018-07-24T14:33:48.894Z,2.87
2018-07-24T14:36:19.215Z,3.93
2018-07-24T14:38:49.316Z,4.37
2018-07-24T14:41:19.556Z,2.83
2018-07-24T14:43:49.653Z,3.27
2018-07-24T14:46:19.828Z,4.33
2018-07-24T14:48:49.983Z,5.03
2018-07-24T14:51:20.113Z,4.67
2018-07-24T14:53:51.226Z,10.13
2018-07-24T14:56:21.576Z,4.93
2018-07-24T14:58:51.699Z,5.42
2018-07-24T15:01:21.958Z,3.25
2018-07-24T15:03:52.210Z,4.50
2018-07-24T15:06:24.862Z,3.47
2018-07-24T15:08:54.994Z,7.28
2018-07-24T15:11:28.220Z,3.70
2018-07-24T15:14:00.713Z,3.67
2018-07-24T15:16:30.885Z,5.42
2018-07-24T15:19:01.599Z,4.50
2018-07-24T15:21:31.839Z,7.60
2018-07-24T15:24:01.428Z,6.60
2018-07-24T15:26:31.527Z,4.22
2018-07-24T15:29:01.641Z,5.28
2018-07-24T15:31:31.820Z,4.75
2018-07-24T15:34:02.009Z,5.35
2018-07-24T15:36:32.366Z,6.85
2018-07-24T15:39:02.597Z,5.78
2018-07-24T15:41:32.785Z,3.08
2018-07-24T15:44:03.126Z,5.47
2018-07-24T15:46:33.298Z,5.05
2018-07-24T15:49:03.521Z,6.05
2018-07-24T15:51:33.741Z,5.92
2018-07-24T15:54:03.969Z,4.62
2018-07-24T15:56:34.091Z,5.60
2018-07-24T16:50:28.833Z,9.05
2018-07-24T16:52:58.904Z,10.88
2018-07-24T16:55:28.901Z,7.35
2018-07-24T16:57:59.012Z,4.67
2018-07-24T17:00:29.097Z,6.62
2018-07-24T17:02:59.164Z,6.65
2018-07-24T17:05:29.172Z,6.10
2018-07-24T17:07:59.288Z,7.22
2018-07-24T17:10:29.312Z,3.30
2018-07-24T17:12:59.420Z,7.30
2018-07-24T17:15:29.458Z,4.97
2018-07-24T17:17:59.521Z,8.28
2018-07-24T17:20:29.557Z,4.03
2018-07-24T17:22:59.722Z,4.33
2018-07-24T17:25:29.754Z,5.92
2018-07-24T17:27:59.789Z,3.72
2018-07-24T17:30:29.822Z,12.47
2018-07-24T17:32:59.974Z,3.60
2018-07-24T17:35:30.148Z,4.35
2018-07-24T17:38:00.257Z,3.83
2018-07-24T17:40:30.323Z,5.57
2018-07-24T17:43:00.548Z,6.20
2018-07-24T17:45:30.673Z,6.87
2018-07-24T17:48:00.758Z,10.80
2018-07-24T17:50:31.131Z,6.33
2018-07-24T17:53:01.158Z,5.83
2018-07-24T17:55:31.237Z,8.50
2018-07-24T17:58:01.401Z,5.90
2018-07-24T18:00:31.570Z,11.47
2018-07-24T18:03:01.636Z,11.97
2018-07-24T18:05:31.873Z,6.70
2018-07-24T18:08:01.945Z,8.47
2018-07-24T18:10:31.987Z,10.10
2018-07-24T18:13:02.046Z,13.50
2018-07-24T18:15:32.182Z,10.13
2018-07-24T18:18:02.304Z,15.93
2018-07-24T18:20:32.389Z,14.47
2018-07-24T18:23:02.494Z,13.70
2018-07-24T18:25:32.575Z,16.77
2018-07-24T18:28:02.657Z,22.10
2018-07-24T18:30:32.765Z,21.33
2018-07-24T18:33:02.850Z,23.40
2018-07-24T18:35:32.945Z,19.83
2018-07-24T18:38:03.373Z,22.90
2018-07-24T18:40:33.437Z,26.23
2018-07-24T18:43:03.518Z,12.53
2018-07-24T18:45:33.650Z,17.00
2018-07-24T18:48:03.685Z,12.83
2018-07-24T18:50:33.791Z,13.20
2018-07-24T18:53:03.949Z,11.27
2018-07-24T18:55:34.046Z,14.20
2018-07-24T18:58:04.120Z,13.87
2018-07-24T19:00:34.146Z,10.67
2018-07-24T19:03:04.291Z,14.50
2018-07-24T19:05:34.507Z,8.83
2018-07-24T19:08:04.613Z,17.73
2018-07-24T19:10:34.752Z,15.47
2018-07-24T19:13:04.958Z,11.50
2018-07-24T19:15:35.014Z,18.17
2018-07-24T19:18:05.078Z,13.67
2018-07-24T19:20:35.198Z,35.80
2018-07-24T19:23:05.402Z,16.40
2018-07-24T19:25:35.538Z,18.30
2018-07-24T19:28:05.657Z,13.57
2018-07-24T19:30:35.789Z,18.67
2018-07-24T19:33:05.921Z,11.60
2018-07-24T19:35:35.976Z,13.33
2018-07-24T19:38:06.045Z,7.33
2018-07-24T19:40:36.142Z,13.93
2018-07-24T19:43:06.256Z,17.40
2018-07-24T19:45:36.409Z,19.43
2018-07-24T19:48:06.594Z,18.90
2018-07-24T19:50:36.686Z,18.13
2018-07-24T19:53:07.098Z,30.83
2018-07-24T19:55:37.209Z,20.60
2018-07-24T19:58:07.330Z,18.80
2018-07-24T20:00:37.881Z,20.07
2018-07-24T20:03:08.013Z,21.67
2018-07-24T20:05:38.222Z,17.20
2018-07-24T20:08:08.403Z,21.43
2018-07-24T20:10:38.458Z,12.90
2018-07-24T20:13:08.609Z,15.77
2018-07-24T20:15:38.614Z,15.00
2018-07-24T20:18:08.693Z,22.63
2018-07-24T20:20:38.808Z,16.93
2018-07-24T20:23:08.990Z,20.40
2018-07-24T20:25:39.116Z,21.33
2018-07-24T20:28:09.224Z,8.70
2018-07-24T20:30:39.335Z,17.23
2018-07-24T20:33:08.841Z,16.23
2018-07-24T20:35:38.858Z,18.07
2018-07-24T20:38:09.038Z,19.63
2018-07-24T20:40:39.076Z,9.60
2018-07-24T20:43:09.202Z,9.40
2018-07-24T20:45:39.319Z,10.90
2018-07-24T20:48:09.405Z,10.33
2018-07-24T20:50:39.513Z,8.90
2018-07-24T20:53:09.742Z,10.67
2018-07-24T20:55:39.850Z,13.77
2018-07-24T20:58:09.990Z,10.30
2018-07-24T21:00:40.196Z,9.97
2018-07-24T21:03:10.377Z,9.70
2018-07-24T21:05:40.442Z,11.83
2018-07-24T21:08:11.016Z,17.00
2018-07-24T21:10:58.339Z,10.57
2018-07-24T21:13:29.817Z,14.37
2018-07-24T21:15:59.963Z,13.43
2018-07-24T21:18:30.673Z,10.60
2018-07-24T21:21:00.842Z,11.27
2018-07-24T21:23:31.052Z,11.97
2018-07-24T21:26:01.498Z,8.23
2018-07-24T21:28:31.706Z,9.83
2018-07-24T21:31:01.799Z,8.47
2018-07-24T21:33:31.956Z,9.47
2018-07-24T21:36:02.564Z,15.33
2018-07-24T21:38:32.922Z,13.73
2018-07-24T21:41:03.379Z,12.23
2018-07-24T21:43:34.467Z,11.27
2018-07-24T21:46:04.608Z,9.63
2018-07-24T21:48:34.768Z,9.37
2018-07-24T21:51:04.870Z,8.47
2018-07-24T21:53:35.571Z,8.83
2018-07-24T21:56:05.703Z,10.57
2018-07-24T21:58:35.804Z,10.40
2018-07-24T22:01:11.130Z,9.17
2018-07-24T22:03:41.092Z,9.67
2018-07-24T22:06:11.472Z,11.20
2018-07-24T22:08:41.764Z,6.83
2018-07-24T22:11:12.041Z,11.63
2018-07-24T22:13:43.826Z,6.00
2018-07-24T22:16:15.498Z,8.07
2018-07-24T22:18:45.406Z,11.27
2018-07-24T22:21:16.431Z,8.43
2018-07-24T22:23:47.416Z,11.53
2018-07-24T22:26:18.104Z,10.43
2018-07-24T22:28:50.079Z,7.57
2018-07-24T22:31:20.655Z,9.07
2018-07-24T22:33:52.261Z,9.93
2018-07-24T22:36:22.631Z,8.37
2018-07-24T22:38:53.146Z,8.47
2018-07-24T22:41:24.019Z,6.10
2018-07-24T22:43:54.488Z,9.10
2018-07-24T22:46:25.028Z,10.17
2018-07-24T22:48:54.892Z,8.47
2018-07-24T22:51:24.283Z,8.53
2018-07-24T22:53:54.099Z,8.57
2018-07-24T22:56:23.976Z,5.80
2018-07-24T22:58:53.901Z,9.17
2018-07-24T23:01:23.805Z,11.97
2018-07-24T23:03:54.528Z,9.93
2018-07-24T23:06:25.193Z,8.90
2018-07-24T23:08:55.124Z,8.60
2018-07-24T23:11:25.017Z,7.87
2018-07-24T23:13:54.948Z,7.77
2018-07-24T23:16:25.421Z,8.07
2018-07-24T23:18:55.361Z,15.20
2018-07-24T23:21:25.891Z,10.87
2018-07-24T23:23:56.518Z,8.87
2018-07-24T23:26:27.272Z,9.27
2018-07-24T23:28:58.469Z,9.80
2018-07-24T23:31:28.364Z,5.27
2018-07-24T23:33:58.288Z,6.37
2018-07-24T23:36:28.507Z,9.00
2018-07-24T23:38:59.296Z,8.10
2018-07-24T23:41:30.670Z,5.67
2018-07-24T23:44:01.844Z,12.03
2018-07-24T23:46:32.740Z,6.97
2018-07-24T23:49:02.751Z,9.73
2018-07-24T23:51:33.407Z,10.77
2018-07-24T23:54:04.973Z,6.53
2018-07-24T23:56:35.715Z,12.23
2018-07-24T23:59:07.157Z,7.10
